Time;durP1;ratioP1;P1;durP2;ratioP2;P2;SDS_P1;SDS_P2;PMS_P1;PMS_P2;Temp;Humidity;BMP_temperature;BMP_pressure;BME280_temperature;BME280_humidity;BME280_pressure;Samples;Min_cycle;Max_cycle;Signal;HPM_P1;HPM_P2
2022/09/15 00:00:52;;;;;;;1.90;1.48;;;13.60;99.90;;;;;;5054882;28;20552;-57
2022/09/15 00:03:19;;;;;;;2.85;2.08;;;13.50;99.90;;;;;;5055901;28;20212;-57
2022/09/15 00:05:45;;;;;;;2.63;1.88;;;13.40;99.90;;;;;;5055918;28;20179;-58
2022/09/15 00:08:14;;;;;;;2.60;1.70;;;13.40;99.90;;;;;;5054899;28;20178;-57
2022/09/15 00:11:08;;;;;;;2.67;1.90;;;13.30;99.90;;;;;;5038521;28;20699;-57
2022/09/15 00:13:36;;;;;;;3.88;1.90;;;13.30;99.90;;;;;;5055076;28;20659;-57
2022/09/15 00:16:04;;;;;;;2.17;1.83;;;13.30;99.90;;;;;;5054475;28;20695;-57
2022/09/15 00:18:30;;;;;;;2.17;1.80;;;13.30;99.90;;;;;;5055878;28;20244;-57
2022/09/15 00:20:56;;;;;;;2.72;2.10;;;13.30;99.90;;;;;;5055820;28;20198;-57
2022/09/15 00:23:22;;;;;;;2.13;1.73;;;13.30;99.90;;;;;;5054573;28;20796;-56
2022/09/15 00:25:50;;;;;;;3.03;1.83;;;13.20;99.90;;;;;;5055753;28;20242;-57
2022/09/15 00:28:19;;;;;;;2.17;1.48;;;13.20;99.90;;;;;;5055600;28;20182;-58
2022/09/15 00:30:49;;;;;;;2.53;1.65;;;13.20;99.90;;;;;;5055692;28;20237;-57
2022/09/15 00:33:15;;;;;;;2.47;1.77;;;13.20;99.90;;;;;;5055527;28;20225;-57
2022/09/15 00:35:44;;;;;;;3.40;1.67;;;13.10;99.90;;;;;;5054365;28;20176;-57
2022/09/15 00:38:12;;;;;;;2.28;1.90;;;13.20;99.90;;;;;;5055461;28;20694;-57
2022/09/15 00:40:52;;;;;;;2.38;1.85;;;13.20;99.90;;;;;;5037590;28;20696;-57
2022/09/15 00:43:39;;;;;;;2.50;1.80;;;13.10;99.90;;;;;;5055473;28;20298;-57
2022/09/15 00:46:04;;;;;;;2.03;1.65;;;13.10;99.90;;;;;;5055395;28;20202;-57
2022/09/15 00:48:30;;;;;;;2.55;1.77;;;13.20;99.90;;;;;;5055139;28;20198;-56
2022/09/15 00:50:58;;;;;;;1.73;1.38;;;13.20;99.90;;;;;;5053849;28;20206;-57
2022/09/15 00:53:26;;;;;;;2.67;1.70;;;13.20;99.90;;;;;;5053831;28;20644;-57
2022/09/15 00:55:52;;;;;;;2.22;1.63;;;13.30;99.90;;;;;;5055272;28;20202;-57
2022/09/15 00:58:43;;;;;;;2.22;1.85;;;13.40;99.90;;;;;;5055159;28;20206;-58
2022/09/15 01:01:11;;;;;;;1.83;1.58;;;13.50;99.90;;;;;;5055129;28;20175;-57
2022/09/15 01:03:37;;;;;;;3.17;2.22;;;13.50;99.90;;;;;;5054926;28;20202;-57
2022/09/15 01:06:25;;;;;;;2.63;1.77;;;13.50;99.90;;;;;;5054070;28;20266;-58
2022/09/15 01:09:01;;;;;;;2.47;2.00;;;13.60;99.90;;;;;;5054869;28;20195;-57
2022/09/15 01:11:27;;;;;;;2.92;2.00;;;13.50;99.90;;;;;;5054988;28;20197;-57
2022/09/15 01:13:53;;;;;;;2.83;2.28;;;13.40;99.90;;;;;;5054424;28;20218;-57
2022/09/15 01:16:30;;;;;;;2.10;1.75;;;13.40;99.90;;;;;;5054941;28;20180;-57
2022/09/15 01:19:51;;;;;;;2.38;1.90;;;13.40;99.90;;;;;;5054722;28;20171;-56
2022/09/15 01:22:40;;;;;;;3.30;2.10;;;13.40;99.90;;;;;;5044220;28;20179;-57
2022/09/15 01:25:27;;;;;;;2.20;1.65;;;13.40;99.90;;;;;;5054880;28;20539;-56
2022/09/15 01:28:01;;;;;;;2.22;1.80;;;13.40;99.90;;;;;;5054478;28;20644;-57
2022/09/15 01:30:34;;;;;;;2.10;1.73;;;13.40;99.90;;;;;;5054471;28;20600;-57
2022/09/15 01:33:44;;;;;;;1.70;1.60;;;13.40;99.90;;;;;;5054132;28;20207;-57
2022/09/15 01:36:18;;;;;;;3.17;1.92;;;13.50;99.90;;;;;;5051750;28;20186;-57
2022/09/15 01:39:05;;;;;;;2.55;2.05;;;13.50;99.90;;;;;;5054397;28;20168;-56
2022/09/15 01:41:55;;;;;;;1.73;1.50;;;13.60;99.90;;;;;;5054483;28;20186;-56
2022/09/15 01:44:29;;;;;;;2.80;2.05;;;13.60;99.90;;;;;;5054310;28;20217;-57
2022/09/15 01:46:59;;;;;;;2.47;1.70;;;13.70;99.90;;;;;;5054130;28;20181;-57
2022/09/15 01:49:29;;;;;;;2.75;2.10;;;13.80;99.90;;;;;;5054006;28;20175;-57
2022/09/15 01:51:55;;;;;;;2.72;2.42;;;13.80;99.90;;;;;;5054435;28;20175;-56
2022/09/15 01:54:47;;;;;;;2.63;2.05;;;13.90;99.90;;;;;;5054132;28;20175;-57
2022/09/15 01:57:20;;;;;;;3.03;2.58;;;14.00;99.90;;;;;;5054043;28;20233;-57
2022/09/15 01:59:49;;;;;;;3.30;2.70;;;14.00;99.90;;;;;;5053770;28;20747;-57
2022/09/15 02:02:32;;;;;;;3.92;2.60;;;14.00;99.90;;;;;;5054047;28;20187;-57
2022/09/15 02:05:08;;;;;;;3.80;2.55;;;14.00;99.90;;;;;;5053966;28;20270;-57
2022/09/15 02:08:00;;;;;;;2.92;2.63;;;14.00;99.90;;;;;;5054191;28;20528;-57
2022/09/15 02:10:42;;;;;;;2.80;2.53;;;14.10;99.90;;;;;;5053665;28;20183;-57
2022/09/15 02:13:15;;;;;;;3.90;2.42;;;14.00;99.90;;;;;;5053846;28;20183;-56
2022/09/15 02:15:49;;;;;;;2.63;2.35;;;14.10;99.90;;;;;;5053692;28;20195;-57
2022/09/15 02:18:35;;;;;;;3.33;2.83;;;14.10;99.90;;;;;;5053603;28;20181;-57
2022/09/15 02:21:18;;;;;;;3.35;2.33;;;14.10;99.90;;;;;;5053811;28;20179;-57
2022/09/15 02:23:51;;;;;;;3.42;2.42;;;14.10;99.90;;;;;;5053618;28;20199;-57
2022/09/15 02:26:21;;;;;;;6.43;2.63;;;14.10;99.90;;;;;;5053484;28;20177;-57
2022/09/15 02:28:48;;;;;;;3.90;2.90;;;14.10;99.90;;;;;;5053384;28;20186;-57
2022/09/15 02:31:17;;;;;;;4.35;2.95;;;14.20;99.90;;;;;;5053329;28;20179;-57
2022/09/15 02:33:51;;;;;;;3.60;2.53;;;14.10;99.90;;;;;;5053430;28;20189;-56
2022/09/15 02:36:19;;;;;;;3.38;2.47;;;14.20;99.90;;;;;;5053474;28;20167;-57
2022/09/15 02:38:54;;;;;;;3.35;3.05;;;14.20;99.90;;;;;;5053342;28;20171;-57
2022/09/15 02:41:20;;;;;;;3.05;2.50;;;14.30;99.90;;;;;;5053185;28;20194;-57
2022/09/15 02:43:49;;;;;;;4.22;2.67;;;14.20;99.90;;;;;;5052209;28;20254;-58
2022/09/15 02:46:20;;;;;;;3.17;2.53;;;14.30;99.90;;;;;;5053404;28;20168;-58
2022/09/15 02:48:46;;;;;;;3.97;2.90;;;14.30;99.90;;;;;;5052004;28;20210;-57
2022/09/15 02:51:13;;;;;;;3.80;2.35;;;14.30;99.90;;;;;;5053493;28;20203;-57
2022/09/15 02:53:39;;;;;;;3.20;2.55;;;14.30;99.90;;;;;;5053082;28;20191;-57
2022/09/15 02:56:05;;;;;;;3.35;2.70;;;14.30;99.90;;;;;;5051718;28;20576;-57
2022/09/15 02:58:32;;;;;;;3.55;2.50;;;14.30;99.90;;;;;;5035838;28;20229;-57
2022/09/15 03:01:04;;;;;;;2.80;2.22;;;14.30;99.90;;;;;;5053202;28;20202;-57
2022/09/15 03:03:31;;;;;;;4.20;2.88;;;14.30;99.90;;;;;;5053089;28;20199;-57
2022/09/15 03:06:15;;;;;;;5.35;2.63;;;14.30;99.90;;;;;;5053074;28;20175;-57
2022/09/15 03:08:51;;;;;;;4.05;2.50;;;14.30;99.90;;;;;;5051872;28;20171;-57
2022/09/15 03:11:19;;;;;;;2.80;2.30;;;14.30;99.90;;;;;;5053164;28;20171;-57
2022/09/15 03:13:45;;;;;;;3.30;3.00;;;14.30;99.90;;;;;;5051744;28;20258;-57
2022/09/15 03:16:13;;;;;;;3.53;2.60;;;14.30;99.90;;;;;;5052999;28;20195;-57
2022/09/15 03:18:40;;;;;;;2.92;2.63;;;14.30;99.90;;;;;;5052826;28;20164;-57
2022/09/15 03:21:09;;;;;;;3.65;2.75;;;14.30;99.90;;;;;;5034898;28;20206;-57
2022/09/15 03:23:34;;;;;;;3.83;2.58;;;14.30;99.90;;;;;;5052697;28;20203;-57
2022/09/15 03:26:01;;;;;;;2.90;2.55;;;14.20;99.90;;;;;;5051816;28;20267;-57
2022/09/15 03:28:27;;;;;;;2.40;2.17;;;14.20;99.90;;;;;;5051594;28;20172;-57
2022/09/15 03:30:54;;;;;;;3.47;2.78;;;14.20;99.90;;;;;;5052847;28;20174;-57
2022/09/15 03:33:20;;;;;;;3.38;2.38;;;14.20;99.90;;;;;;5052799;28;20182;-57
2022/09/15 03:35:47;;;;;;;2.85;2.38;;;14.20;99.90;;;;;;5052651;28;20168;-57
2022/09/15 03:38:14;;;;;;;2.72;2.40;;;14.10;99.90;;;;;;5052704;28;20170;-57
2022/09/15 03:40:43;;;;;;;3.33;2.65;;;14.20;99.90;;;;;;5051423;28;20567;-57
2022/09/15 03:43:10;;;;;;;3.42;2.63;;;14.20;99.90;;;;;;5052570;28;20286;-57
2022/09/15 03:45:37;;;;;;;2.97;2.60;;;14.20;99.90;;;;;;5051688;28;20267;-57
2022/09/15 03:48:06;;;;;;;4.05;2.85;;;14.20;99.90;;;;;;5051378;28;20202;-58
2022/09/15 03:50:32;;;;;;;4.38;2.20;;;14.20;99.90;;;;;;5052739;28;20175;-56
2022/09/15 03:52:59;;;;;;;3.75;2.83;;;14.10;99.90;;;;;;5052721;28;20188;-57
2022/09/15 03:55:25;;;;;;;3.55;2.55;;;14.10;99.90;;;;;;5053935;28;20623;-57
2022/09/15 03:57:51;;;;;;;2.90;2.35;;;14.10;99.90;;;;;;5056287;28;20179;-57
2022/09/15 04:00:17;;;;;;;3.10;2.42;;;14.10;99.90;;;;;;5056227;28;20178;-57
2022/09/15 04:02:43;;;;;;;4.22;2.72;;;14.00;99.90;;;;;;5056026;28;20270;-56
2022/09/15 04:05:09;;;;;;;3.13;2.55;;;14.00;99.90;;;;;;5056282;28;20167;-57
2022/09/15 04:07:35;;;;;;;3.28;2.75;;;14.00;99.90;;;;;;5056170;28;20509;-58
2022/09/15 04:10:01;;;;;;;3.33;2.90;;;13.90;99.90;;;;;;5056046;28;20178;-57
2022/09/15 04:12:28;;;;;;;3.58;2.83;;;13.90;99.90;;;;;;5056006;28;20233;-57
2022/09/15 04:14:54;;;;;;;4.13;3.10;;;13.80;99.90;;;;;;5055658;28;20591;-56
2022/09/15 04:17:20;;;;;;;2.90;2.13;;;13.80;99.90;;;;;;5055732;28;20182;-57
2022/09/15 04:19:46;;;;;;;4.05;2.72;;;13.80;99.90;;;;;;5055591;28;20175;-57
2022/09/15 04:22:12;;;;;;;3.80;2.90;;;13.70;99.90;;;;;;5056184;28;20175;-57
2022/09/15 04:24:37;;;;;;;3.80;2.92;;;13.80;99.90;;;;;;5055735;28;20217;-58
2022/09/15 04:27:03;;;;;;;3.30;2.70;;;13.80;99.90;;;;;;5056013;28;20168;-57
2022/09/15 04:29:29;;;;;;;4.50;3.15;;;13.70;99.90;;;;;;5055670;28;20180;-57
2022/09/15 04:31:54;;;;;;;3.45;2.70;;;13.70;99.90;;;;;;5054319;28;20179;-56
2022/09/15 04:34:20;;;;;;;5.15;3.53;;;13.70;99.90;;;;;;5055991;28;20671;-57
2022/09/15 04:36:46;;;;;;;3.88;3.00;;;13.70;99.90;;;;;;5055640;28;20184;-57
2022/09/15 04:39:12;;;;;;;3.78;2.72;;;13.70;99.90;;;;;;5055458;28;20233;-57
2022/09/15 04:41:38;;;;;;;3.17;2.47;;;13.60;99.90;;;;;;5055459;28;20229;-57
2022/09/15 04:44:04;;;;;;;3.70;2.95;;;13.60;99.90;;;;;;5055294;28;20223;-57
2022/09/15 04:46:29;;;;;;;3.60;2.90;;;13.50;99.90;;;;;;5055285;28;20172;-57
2022/09/15 04:48:55;;;;;;;3.35;2.85;;;13.50;99.90;;;;;;5055402;28;20187;-57
2022/09/15 04:51:22;;;;;;;4.18;3.33;;;13.50;99.90;;;;;;5055361;28;20182;-57
2022/09/15 04:53:48;;;;;;;5.60;3.50;;;13.50;99.90;;;;;;5055347;28;20266;-57
2022/09/15 04:56:19;;;;;;;4.22;3.10;;;13.50;99.90;;;;;;5055115;28;20168;-57
2022/09/15 04:58:50;;;;;;;3.45;3.08;;;13.50;99.90;;;;;;5055139;28;20694;-58
2022/09/15 05:01:21;;;;;;;3.25;2.75;;;13.50;99.90;;;;;;5055155;28;20221;-58
2022/09/15 05:03:48;;;;;;;5.35;3.60;;;13.40;99.90;;;;;;5054577;28;20198;-59
2022/09/15 05:06:19;;;;;;;4.45;3.30;;;13.40;99.90;;;;;;5053547;28;20717;-58
2022/09/15 05:08:49;;;;;;;4.50;3.10;;;13.50;99.90;;;;;;5054107;28;20517;-58
2022/09/15 05:11:16;;;;;;;4.95;3.38;;;13.50;99.90;;;;;;5054677;28;20209;-58
2022/09/15 05:13:42;;;;;;;4.68;3.42;;;13.60;99.90;;;;;;5054601;28;20171;-58
2022/09/15 05:16:17;;;;;;;5.05;3.17;;;13.60;99.90;;;;;;5055089;28;20187;-59
2022/09/15 05:18:44;;;;;;;4.72;3.55;;;13.60;99.90;;;;;;5054759;28;20174;-57
2022/09/15 05:21:12;;;;;;;3.95;3.22;;;13.70;99.90;;;;;;5054638;28;20171;-58
2022/09/15 05:23:39;;;;;;;4.55;3.22;;;13.60;99.90;;;;;;5053310;28;20203;-59
2022/09/15 05:26:08;;;;;;;4.07;3.50;;;13.60;99.90;;;;;;5053256;28;20184;-58
2022/09/15 05:28:35;;;;;;;4.90;3.47;;;13.60;99.90;;;;;;5054720;28;20160;-58
2022/09/15 05:31:06;;;;;;;5.53;3.35;;;13.60;99.90;;;;;;5054668;28;20203;-58
2022/09/15 05:33:32;;;;;;;5.28;3.72;;;13.50;99.90;;;;;;5054756;28;20233;-58
2022/09/15 05:36:02;;;;;;;5.43;3.60;;;13.50;99.90;;;;;;5054414;28;20532;-58
2022/09/15 05:38:29;;;;;;;5.90;3.75;;;13.50;99.90;;;;;;5053140;28;20169;-58
2022/09/15 05:41:06;;;;;;;5.68;3.70;;;13.50;99.90;;;;;;5054150;28;20198;-58
2022/09/15 05:43:33;;;;;;;4.30;3.22;;;13.50;99.90;;;;;;5054267;28;20195;-58
2022/09/15 05:45:59;;;;;;;5.05;3.63;;;13.50;99.90;;;;;;5054216;28;20644;-58
2022/09/15 05:48:25;;;;;;;5.03;3.78;;;13.50;99.90;;;;;;5054033;28;20171;-58
2022/09/15 05:50:52;;;;;;;4.93;3.45;;;13.50;99.90;;;;;;5054076;28;20171;-58
2022/09/15 05:53:18;;;;;;;4.57;3.30;;;13.50;99.90;;;;;;5053907;28;20179;-58
2022/09/15 05:55:44;;;;;;;4.90;3.72;;;13.50;99.90;;;;;;5054224;28;20256;-58
2022/09/15 05:58:10;;;;;;;4.28;3.50;;;13.60;99.90;;;;;;5053938;28;20640;-58
2022/09/15 06:00:36;;;;;;;3.85;3.28;;;13.60;99.90;;;;;;5054157;28;20258;-58
2022/09/15 06:03:03;;;;;;;4.80;3.45;;;13.60;99.90;;;;;;5053736;28;20195;-58
2022/09/15 06:05:28;;;;;;;6.22;3.67;;;13.60;99.90;;;;;;5053812;28;20660;-58
2022/09/15 06:07:55;;;;;;;4.00;3.17;;;13.60;99.90;;;;;;5053774;28;20263;-57
2022/09/15 06:10:23;;;;;;;3.53;3.22;;;13.70;99.90;;;;;;5052579;28;20201;-58
2022/09/15 06:12:52;;;;;;;4.10;3.15;;;13.70;99.90;;;;;;5053646;28;20180;-59
2022/09/15 06:15:18;;;;;;;4.57;3.80;;;13.70;99.90;;;;;;5052318;28;20254;-58
2022/09/15 06:17:45;;;;;;;4.68;3.08;;;13.80;99.90;;;;;;5053450;28;20641;-58
2022/09/15 06:20:11;;;;;;;3.80;3.30;;;13.90;99.90;;;;;;5052292;28;20181;-58
2022/09/15 06:22:37;;;;;;;3.85;3.25;;;14.00;99.90;;;;;;5053369;28;20175;-58
2022/09/15 06:25:03;;;;;;;4.82;3.67;;;14.10;99.90;;;;;;5053634;28;20214;-59
2022/09/15 06:27:28;;;;;;;5.32;4.00;;;14.10;99.90;;;;;;5052395;28;20577;-58
2022/09/15 06:29:54;;;;;;;5.05;3.60;;;14.20;99.90;;;;;;5053453;28;20214;-58
2022/09/15 06:32:20;;;;;;;4.53;3.33;;;14.30;99.90;;;;;;5052284;28;20263;-58
2022/09/15 06:34:45;;;;;;;4.32;3.58;;;14.30;99.90;;;;;;5053304;28;20175;-58
2022/09/15 06:37:11;;;;;;;4.00;3.28;;;14.40;99.90;;;;;;5053540;28;20246;-58
2022/09/15 06:39:36;;;;;;;5.05;3.58;;;14.40;99.90;;;;;;5053467;28;20175;-59
2022/09/15 06:42:02;;;;;;;4.22;3.15;;;14.50;99.90;;;;;;5053669;28;20186;-58
2022/09/15 06:44:28;;;;;;;3.83;2.97;;;14.60;99.90;;;;;;5053172;28;20227;-58
2022/09/15 06:46:54;;;;;;;4.22;3.08;;;14.60;99.90;;;;;;5053225;28;20179;-58
2022/09/15 06:49:20;;;;;;;4.90;3.45;;;14.70;99.90;;;;;;5053111;28;20175;-58
2022/09/15 06:51:46;;;;;;;3.08;2.70;;;14.70;99.90;;;;;;5053311;28;20198;-59
2022/09/15 06:54:14;;;;;;;5.82;3.85;;;14.80;99.90;;;;;;5053277;28;20632;-58
2022/09/15 06:56:41;;;;;;;4.13;3.15;;;14.90;99.90;;;;;;5053165;28;20183;-58
2022/09/15 06:59:08;;;;;;;3.55;3.10;;;14.90;99.90;;;;;;5053158;28;20207;-58
2022/09/15 07:01:34;;;;;;;3.35;2.50;;;15.00;99.90;;;;;;5053117;28;20198;-58
2022/09/15 07:04:03;;;;;;;4.15;2.88;;;15.00;99.90;;;;;;5053028;28;20203;-58
2022/09/15 07:06:30;;;;;;;3.75;3.08;;;15.10;99.90;;;;;;5053182;28;20186;-59
2022/09/15 07:09:01;;;;;;;4.40;3.13;;;15.10;99.90;;;;;;5052991;28;20167;-58
2022/09/15 07:11:27;;;;;;;3.45;3.13;;;15.10;99.90;;;;;;5053083;28;20266;-59
2022/09/15 07:13:53;;;;;;;3.60;2.80;;;15.10;99.90;;;;;;5052738;28;20220;-58
2022/09/15 07:16:19;;;;;;;3.53;2.60;;;15.10;99.90;;;;;;5052931;28;20187;-58
2022/09/15 07:18:46;;;;;;;3.95;3.00;;;15.20;99.90;;;;;;5052812;28;20632;-58
2022/09/15 07:21:14;;;;;;;3.95;3.20;;;15.20;99.90;;;;;;5053083;28;20179;-58
2022/09/15 07:23:41;;;;;;;3.97;2.85;;;15.20;99.90;;;;;;5052874;28;20203;-58
2022/09/15 07:26:12;;;;;;;4.50;3.15;;;15.20;99.90;;;;;;5052786;28;20192;-57
2022/09/15 07:28:40;;;;;;;4.72;3.10;;;15.20;99.90;;;;;;5053119;28;20175;-58
2022/09/15 07:31:09;;;;;;;3.33;2.63;;;15.20;99.90;;;;;;5053887;28;20191;-57
2022/09/15 07:33:35;;;;;;;3.85;2.80;;;15.30;99.90;;;;;;5056909;28;20206;-58
2022/09/15 07:36:02;;;;;;;3.55;3.08;;;15.30;99.90;;;;;;5056741;28;20245;-58
2022/09/15 07:38:28;;;;;;;3.13;2.83;;;15.40;99.90;;;;;;5056827;28;20179;-58
2022/09/15 07:40:54;;;;;;;3.55;2.85;;;15.40;99.90;;;;;;5056598;28;20510;-58
2022/09/15 07:43:19;;;;;;;4.10;3.20;;;15.40;99.90;;;;;;5056414;28;20230;-58
2022/09/15 07:45:45;;;;;;;3.47;2.97;;;15.50;99.90;;;;;;5056256;28;20183;-57
2022/09/15 07:48:11;;;;;;;4.00;2.97;;;15.50;99.90;;;;;;5056556;28;20226;-58
2022/09/15 07:50:37;;;;;;;3.53;2.70;;;15.60;99.90;;;;;;5056529;28;20581;-58
2022/09/15 07:53:03;;;;;;;4.25;3.35;;;15.60;99.90;;;;;;5056370;28;20183;-59
2022/09/15 07:55:29;;;;;;;3.47;2.53;;;15.70;99.90;;;;;;5056381;28;20171;-58
2022/09/15 07:58:02;;;;;;;3.45;2.95;;;15.80;99.90;;;;;;5055335;28;20233;-58
2022/09/15 08:00:28;;;;;;;4.75;3.25;;;15.90;99.90;;;;;;5056412;28;20178;-58
2022/09/15 08:02:55;;;;;;;3.65;2.65;;;15.90;99.90;;;;;;5056138;28;20171;-58
2022/09/15 08:05:24;;;;;;;3.58;3.00;;;16.00;99.90;;;;;;5055087;28;20182;-58
2022/09/15 08:07:50;;;;;;;3.50;2.70;;;16.00;99.90;;;;;;5056073;28;20226;-58
2022/09/15 08:10:16;;;;;;;3.38;2.70;;;16.00;99.90;;;;;;5054776;28;20637;-58
2022/09/15 08:12:42;;;;;;;2.85;2.30;;;16.00;99.90;;;;;;5055908;28;20221;-58
2022/09/15 08:15:08;;;;;;;3.33;2.45;;;15.90;99.90;;;;;;5055655;28;20191;-58
2022/09/15 08:17:34;;;;;;;3.15;2.25;;;16.00;99.90;;;;;;5056034;28;20172;-57
2022/09/15 08:20:00;;;;;;;3.30;2.25;;;16.20;99.90;;;;;;5055821;28;20171;-58
2022/09/15 08:22:26;;;;;;;2.50;1.92;;;16.30;99.90;;;;;;5055787;28;20180;-58
2022/09/15 08:24:51;;;;;;;2.78;1.88;;;16.50;99.90;;;;;;5055706;28;20206;-58
2022/09/15 08:27:17;;;;;;;2.22;1.83;;;16.60;99.90;;;;;;5037770;28;20179;-58
2022/09/15 08:29:43;;;;;;;2.15;1.80;;;16.80;99.90;;;;;;5038062;28;20211;-57
2022/09/15 08:32:08;;;;;;;3.00;2.13;;;16.90;99.90;;;;;;5055461;28;20514;-57
2022/09/15 08:34:34;;;;;;;2.85;1.83;;;17.10;99.90;;;;;;5054502;28;20229;-59
2022/09/15 08:37:00;;;;;;;1.60;1.35;;;17.10;99.90;;;;;;5055610;28;20172;-58
2022/09/15 08:39:25;;;;;;;2.40;1.90;;;17.20;99.90;;;;;;5055560;28;20482;-58
2022/09/15 08:41:52;;;;;;;2.25;1.45;;;17.30;99.90;;;;;;5052914;28;20322;-58
2022/09/15 08:44:48;;;;;;;1.85;1.23;;;17.40;99.90;;;;;;5055349;28;20254;-58
2022/09/15 08:47:19;;;;;;;2.35;1.60;;;17.60;99.90;;;;;;5055387;28;20175;-58
2022/09/15 08:50:04;;;;;;;1.23;1.13;;;17.60;99.90;;;;;;5055254;28;20580;-58
2022/09/15 08:52:45;;;;;;;2.22;1.58;;;17.80;99.90;;;;;;5055499;28;20553;-58
2022/09/15 08:55:14;;;;;;;3.45;2.35;;;17.80;99.90;;;;;;5055372;28;20174;-58
2022/09/15 08:57:40;;;;;;;2.95;1.58;;;17.70;99.90;;;;;;5053969;28;20228;-58
2022/09/15 09:00:14;;;;;;;3.03;2.63;;;17.90;99.90;;;;;;5055364;28;20171;-59
2022/09/15 09:03:14;;;;;;;2.13;1.73;;;17.90;99.90;;;;;;5053741;28;20208;-58
2022/09/15 09:05:57;;;;;;;2.75;2.00;;;18.00;99.90;;;;;;5055137;28;20645;-58
2022/09/15 09:09:10;;;;;;;1.13;1.08;;;18.10;99.90;;;;;;5055020;28;20172;-58
2022/09/15 09:12:16;;;;;;;1.05;0.75;;;18.30;99.90;;;;;;5054866;28;20171;-59
2022/09/15 09:14:44;;;;;;;0.73;0.70;;;18.60;99.90;;;;;;5048499;28;20219;-59
2022/09/15 09:17:31;;;;;;;0.70;0.60;;;18.90;99.90;;;;;;5054726;28;20252;-57
2022/09/15 09:20:18;;;;;;;0.77;0.70;;;19.00;99.90;;;;;;5054668;28;20621;-58
2022/09/15 09:22:47;;;;;;;0.60;0.60;;;19.00;99.90;;;;;;5054658;28;20236;-58
2022/09/15 09:25:17;;;;;;;0.82;0.82;;;19.00;99.90;;;;;;5054534;28;20174;-58
2022/09/15 09:27:42;;;;;;;0.80;0.80;;;18.90;99.90;;;;;;5053601;28;20171;-58
2022/09/15 09:30:16;;;;;;;0.70;0.70;;;18.70;99.90;;;;;;5054633;28;20179;-58
2022/09/15 09:33:15;;;;;;;0.85;0.85;;;18.70;99.90;;;;;;5054593;28;20175;-58
2022/09/15 09:35:42;;;;;;;1.55;0.90;;;18.70;99.90;;;;;;5054448;28;20167;-58
2022/09/15 09:38:10;;;;;;;0.63;0.63;;;18.60;99.90;;;;;;5054243;28;20179;-58
2022/09/15 09:40:38;;;;;;;0.80;0.80;;;18.70;99.90;;;;;;5054470;28;20167;-58
2022/09/15 09:43:04;;;;;;;1.20;0.82;;;18.80;99.90;;;;;;5053091;28;20203;-58
2022/09/15 09:45:30;;;;;;;0.98;0.60;;;18.90;99.90;;;;;;5054106;28;20542;-58
2022/09/15 09:48:01;;;;;;;1.02;0.63;;;18.90;99.90;;;;;;5054197;28;20183;-57
2022/09/15 09:50:57;;;;;;;0.57;0.57;;;18.80;99.90;;;;;;5054241;28;20167;-58
2022/09/15 09:53:30;;;;;;;0.88;0.60;;;18.70;99.90;;;;;;5048998;28;20655;-58
2022/09/15 09:56:11;;;;;;;1.95;0.70;;;18.60;99.90;;;;;;5054108;28;20229;-58
2022/09/15 09:58:37;;;;;;;0.60;0.60;;;18.80;99.90;;;;;;5053922;28;20210;-58
2022/09/15 10:01:11;;;;;;;0.60;0.60;;;18.70;99.90;;;;;;5053873;28;20182;-58
2022/09/15 10:03:37;;;;;;;0.50;0.50;;;18.60;99.90;;;;;;5053958;28;20202;-57
2022/09/15 10:06:26;;;;;;;0.40;0.40;;;18.50;99.90;;;;;;5052759;28;20187;-58
2022/09/15 10:09:07;;;;;;;0.50;0.50;;;18.50;99.90;;;;;;5053882;28;20291;-58
2022/09/15 10:12:00;;;;;;;0.30;0.30;;;18.40;99.90;;;;;;5053673;28;20175;-57
2022/09/15 10:14:37;;;;;;;0.30;0.30;;;18.20;99.90;;;;;;5052557;28;20265;-58
2022/09/15 10:17:12;;;;;;;0.50;0.50;;;18.10;99.90;;;;;;5053656;28;20249;-58
2022/09/15 10:19:46;;;;;;;0.70;0.65;;;18.00;99.90;;;;;;5053544;28;20171;-58
2022/09/15 10:22:27;;;;;;;1.27;0.52;;;17.70;99.90;;;;;;5053456;28;20603;-58
2022/09/15 10:24:53;;;;;;;0.50;0.50;;;17.60;99.90;;;;;;5053571;28;20218;-58
2022/09/15 10:27:29;;;;;;;0.95;0.40;;;17.10;99.90;;;;;;5053568;28;20175;-57
2022/09/15 10:29:58;;;;;;;1.15;0.35;;;16.90;99.90;;;;;;5053448;28;20632;-57
2022/09/15 10:32:29;;;;;;;0.20;0.20;;;16.70;99.90;;;;;;5053390;28;20168;-58
2022/09/15 10:35:12;;;;;;;0.20;0.10;;;16.40;99.90;;;;;;5053644;28;20190;-58
2022/09/15 10:38:04;;;;;;;0.10;0.10;;;16.00;99.90;;;;;;5053586;28;20477;-58
2022/09/15 10:40:50;;;;;;;0.17;0.17;;;15.90;99.90;;;;;;5053359;28;20242;-58
2022/09/15 10:43:45;;;;;;;0.65;0.20;;;15.70;99.90;;;;;;5052217;28;20199;-58
2022/09/15 10:46:31;;;;;;;0.30;0.30;;;15.60;99.90;;;;;;5053606;28;20179;-58
2022/09/15 10:49:25;;;;;;;0.40;0.40;;;15.60;99.90;;;;;;5053197;28;20175;-58
2022/09/15 10:52:02;;;;;;;0.35;0.20;;;15.60;99.90;;;;;;5053399;28;20209;-58
2022/09/15 10:54:46;;;;;;;0.20;0.20;;;15.60;99.90;;;;;;5053255;28;20175;-57
2022/09/15 10:57:40;;;;;;;0.20;0.20;;;15.70;99.90;;;;;;5053171;28;20579;-58
2022/09/15 11:00:24;;;;;;;0.20;0.20;;;15.70;99.90;;;;;;5053230;28;20245;-57
2022/09/15 11:02:56;;;;;;;1.75;0.50;;;15.80;99.90;;;;;;5051750;28;20651;-57
2022/09/15 11:05:38;;;;;;;0.28;0.25;;;15.90;99.90;;;;;;5054372;28;20177;-57
2022/09/15 11:08:13;;;;;;;0.52;0.40;;;15.90;99.90;;;;;;5057735;28;20195;-57
2022/09/15 11:11:20;;;;;;;0.30;0.30;;;16.00;99.90;;;;;;5057372;28;20258;-57
2022/09/15 11:13:58;;;;;;;0.38;0.38;;;16.10;99.90;;;;;;5057221;28;20186;-57
2022/09/15 11:16:51;;;;;;;1.17;0.20;;;16.10;99.90;;;;;;5057296;28;20179;-57
2022/09/15 11:19:23;;;;;;;0.30;0.30;;;16.20;99.90;;;;;;5057109;28;20175;-57
2022/09/15 11:22:17;;;;;;;0.55;0.32;;;16.20;99.90;;;;;;5057021;28;20250;-58
2022/09/15 11:25:09;;;;;;;0.30;0.30;;;16.50;99.90;;;;;;5054203;28;20234;-58
2022/09/15 11:27:41;;;;;;;0.40;0.25;;;16.70;99.90;;;;;;5055952;28;20191;-58
2022/09/15 11:30:17;;;;;;;0.22;0.20;;;16.90;99.90;;;;;;5056905;28;20237;-57
2022/09/15 11:33:04;;;;;;;0.20;0.20;;;17.10;99.90;;;;;;5056720;28;20202;-58
2022/09/15 11:35:46;;;;;;;0.90;0.70;;;17.10;99.90;;;;;;5056766;28;20179;-57
2022/09/15 11:38:29;;;;;;;0.80;0.30;;;17.10;99.90;;;;;;5056745;28;20167;-57
2022/09/15 11:41:09;;;;;;;0.17;0.17;;;17.30;99.90;;;;;;5056629;28;20175;-57
2022/09/15 11:43:45;;;;;;;0.25;0.25;;;17.40;99.90;;;;;;5056436;28;20264;-58
2022/09/15 11:46:20;;;;;;;0.30;0.20;;;17.60;99.90;;;;;;5056636;28;20186;-58
2022/09/15 11:48:54;;;;;;;0.20;0.20;;;17.80;99.90;;;;;;5056523;28;20175;-58
2022/09/15 11:51:24;;;;;;;0.10;0.10;;;18.10;99.90;;;;;;5056413;28;20166;-57
2022/09/15 11:54:00;;;;;;;0.30;0.30;;;18.00;99.90;;;;;;5056533;28;20545;-57
2022/09/15 11:56:34;;;;;;;0.43;0.20;;;18.00;99.90;;;;;;5056565;28;20186;-58
2022/09/15 11:59:25;;;;;;;0.22;0.22;;;17.90;99.90;;;;;;5056405;28;20171;-58
2022/09/15 12:02:27;;;;;;;0.88;0.28;;;18.00;99.90;;;;;;5056238;28;20510;-57
2022/09/15 12:05:25;;;;;;;0.35;0.28;;;17.90;99.90;;;;;;5056159;28;20249;-58
2022/09/15 12:08:17;;;;;;;0.43;0.20;;;18.10;99.90;;;;;;5056065;28;20179;-57
2022/09/15 12:10:47;;;;;;;0.65;0.20;;;17.90;99.90;;;;;;5055819;28;20518;-58
2022/09/15 12:13:19;;;;;;;0.45;0.40;;;17.80;99.90;;;;;;5056181;28;20186;-59
2022/09/15 12:15:47;;;;;;;0.95;0.25;;;17.70;99.90;;;;;;5054482;28;20199;-58
2022/09/15 12:18:19;;;;;;;0.30;0.30;;;18.10;99.90;;;;;;5056219;28;20263;-58
2022/09/15 12:20:57;;;;;;;0.65;0.28;;;18.40;99.90;;;;;;5055837;28;20178;-57
2022/09/15 12:23:23;;;;;;;1.52;0.60;;;18.50;99.90;;;;;;5056017;28;20644;-58
2022/09/15 12:26:15;;;;;;;2.00;0.40;;;18.50;99.90;;;;;;5056007;28;20175;-58
2022/09/15 12:29:02;;;;;;;0.40;0.13;;;18.70;99.90;;;;;;5052539;28;20179;-58
2022/09/15 12:31:38;;;;;;;0.20;0.20;;;18.90;99.90;;;;;;5055879;28;20225;-58
2022/09/15 12:34:29;;;;;;;0.52;0.35;;;19.10;99.90;;;;;;5055681;28;20552;-58
2022/09/15 12:37:13;;;;;;;0.20;0.20;;;19.00;99.90;;;;;;5055670;28;20163;-58
2022/09/15 12:39:41;;;;;;;0.60;0.10;;;19.20;99.90;;;;;;5054418;28;20236;-58
2022/09/15 12:42:30;;;;;;;0.10;0.10;;;18.90;99.90;;;;;;5055591;28;20270;-58
2022/09/15 12:45:00;;;;;;;0.45;0.20;;;19.00;99.90;;;;;;5055715;28;20219;-58
2022/09/15 12:47:34;;;;;;;0.45;0.30;;;18.90;99.90;;;;;;5055611;28;20225;-58
2022/09/15 12:50:18;;;;;;;1.15;0.20;;;18.60;99.90;;;;;;5055244;28;20529;-58
2022/09/15 12:53:35;;;;;;;0.70;0.32;;;18.40;99.90;;;;;;5054115;28;20210;-57
2022/09/15 12:56:09;;;;;;;0.55;0.43;;;18.40;99.90;;;;;;5032899;28;20172;-58
2022/09/15 12:58:48;;;;;;;0.20;0.20;;;18.40;99.90;;;;;;5052180;28;20656;-58
2022/09/15 13:01:25;;;;;;;0.17;0.17;;;18.50;99.90;;;;;;5055291;28;20168;-59
2022/09/15 13:03:56;;;;;;;1.50;0.20;;;18.60;99.90;;;;;;5054930;28;20211;-58
2022/09/15 13:06:36;;;;;;;0.20;0.20;;;18.70;99.90;;;;;;5054997;28;20191;-58
2022/09/15 13:09:05;;;;;;;1.00;0.38;;;19.10;99.90;;;;;;5055059;28;20533;-58
2022/09/15 13:11:35;;;;;;;0.35;0.20;;;19.50;99.90;;;;;;5055085;28;20164;-58
2022/09/15 13:14:07;;;;;;;0.43;0.43;;;19.80;99.90;;;;;;5054762;28;20536;-58
2022/09/15 13:16:32;;;;;;;0.20;0.20;;;19.80;99.90;;;;;;5055012;28;20184;-58